sensor_id;sensor_type;location;lat;lon;timestamp;P1;durP1;ratioP1;P2;durP2;ratioP2
13269;SDS011;6703;51.994;7.570;2022-10-12T00:00:12;27.98;;;5.95;;
13269;SDS011;6703;51.994;7.570;2022-10-12T00:02:41;18.08;;;5.90;;
13269;SDS011;6703;51.994;7.570;2022-10-12T00:05:09;25.38;;;5.65;;
13269;SDS011;6703;51.994;7.570;2022-10-12T00:07:37;15.03;;;5.00;;
13269;SDS011;6703;51.994;7.570;2022-10-12T00:10:06;35.88;;;6.10;;
13269;SDS011;6703;51.994;7.570;2022-10-12T00:12:34;26.20;;;5.90;;
13269;SDS011;6703;51.994;7.570;2022-10-12T00:15:02;26.93;;;5.80;;
13269;SDS011;6703;51.994;7.570;2022-10-12T00:17:30;19.17;;;5.50;;
13269;SDS011;6703;51.994;7.570;2022-10-12T00:19:59;15.75;;;4.63;;
13269;SDS011;6703;51.994;7.570;2022-10-12T00:22:27;23.98;;;5.15;;
13269;SDS011;6703;51.994;7.570;2022-10-12T00:24:54;22.45;;;5.68;;
13269;SDS011;6703;51.994;7.570;2022-10-12T00:27:22;19.00;;;6.00;;
13269;SDS011;6703;51.994;7.570;2022-10-12T00:29:49;31.73;;;6.68;;
13269;SDS011;6703;51.994;7.570;2022-10-12T00:32:17;27.75;;;7.85;;
13269;SDS011;6703;51.994;7.570;2022-10-12T00:34:46;60.35;;;8.35;;
13269;SDS011;6703;51.994;7.570;2022-10-12T00:37:15;31.65;;;7.00;;
13269;SDS011;6703;51.994;7.570;2022-10-12T00:39:43;88.53;;;10.35;;
13269;SDS011;6703;51.994;7.570;2022-10-12T00:42:11;30.83;;;8.50;;
13269;SDS011;6703;51.994;7.570;2022-10-12T00:44:40;24.50;;;7.40;;
13269;SDS011;6703;51.994;7.570;2022-10-12T00:47:17;37.93;;;7.73;;
13269;SDS011;6703;51.994;7.570;2022-10-12T00:49:49;29.13;;;7.78;;
13269;SDS011;6703;51.994;7.570;2022-10-12T00:52:22;54.80;;;9.48;;
13269;SDS011;6703;51.994;7.570;2022-10-12T00:54:53;25.92;;;7.57;;
13269;SDS011;6703;51.994;7.570;2022-10-12T00:57:22;29.13;;;7.10;;
13269;SDS011;6703;51.994;7.570;2022-10-12T00:59:51;24.83;;;6.90;;
13269;SDS011;6703;51.994;7.570;2022-10-12T01:02:21;35.20;;;8.38;;
13269;SDS011;6703;51.994;7.570;2022-10-12T01:04:50;35.00;;;8.88;;
13269;SDS011;6703;51.994;7.570;2022-10-12T01:07:18;30.50;;;8.35;;
13269;SDS011;6703;51.994;7.570;2022-10-12T01:09:48;35.28;;;8.48;;
13269;SDS011;6703;51.994;7.570;2022-10-12T01:12:16;28.90;;;8.20;;
13269;SDS011;6703;51.994;7.570;2022-10-12T01:14:44;27.60;;;8.20;;
13269;SDS011;6703;51.994;7.570;2022-10-12T01:17:15;31.13;;;7.93;;
13269;SDS011;6703;51.994;7.570;2022-10-12T01:19:58;31.85;;;8.15;;
13269;SDS011;6703;51.994;7.570;2022-10-12T01:22:55;36.78;;;8.10;;
13269;SDS011;6703;51.994;7.570;2022-10-12T01:25:37;23.35;;;7.60;;
13269;SDS011;6703;51.994;7.570;2022-10-12T01:28:13;33.22;;;8.65;;
13269;SDS011;6703;51.994;7.570;2022-10-12T01:30:47;22.23;;;7.50;;
13269;SDS011;6703;51.994;7.570;2022-10-12T01:33:23;29.33;;;7.78;;
13269;SDS011;6703;51.994;7.570;2022-10-12T01:35:53;22.53;;;7.17;;
13269;SDS011;6703;51.994;7.570;2022-10-12T01:38:27;28.15;;;8.48;;
13269;SDS011;6703;51.994;7.570;2022-10-12T01:41:02;23.50;;;7.80;;
13269;SDS011;6703;51.994;7.570;2022-10-12T01:43:34;25.95;;;8.10;;
13269;SDS011;6703;51.994;7.570;2022-10-12T01:49:05;26.03;;;7.37;;
13269;SDS011;6703;51.994;7.570;2022-10-12T01:51:34;20.92;;;7.00;;
13269;SDS011;6703;51.994;7.570;2022-10-12T01:54:06;29.52;;;7.72;;
13269;SDS011;6703;51.994;7.570;2022-10-12T01:56:38;26.50;;;8.32;;
13269;SDS011;6703;51.994;7.570;2022-10-12T01:59:10;26.42;;;7.00;;
13269;SDS011;6703;51.994;7.570;2022-10-12T02:01:45;17.48;;;6.70;;
13269;SDS011;6703;51.994;7.570;2022-10-12T02:04:17;21.50;;;7.25;;
13269;SDS011;6703;51.994;7.570;2022-10-12T02:06:48;44.20;;;7.80;;
13269;SDS011;6703;51.994;7.570;2022-10-12T02:09:19;23.08;;;6.80;;
13269;SDS011;6703;51.994;7.570;2022-10-12T02:11:50;28.58;;;8.00;;
13269;SDS011;6703;51.994;7.570;2022-10-12T02:14:20;26.20;;;6.97;;
13269;SDS011;6703;51.994;7.570;2022-10-12T02:16:50;26.95;;;7.03;;
13269;SDS011;6703;51.994;7.570;2022-10-12T02:19:21;29.77;;;7.40;;
13269;SDS011;6703;51.994;7.570;2022-10-12T02:21:51;21.90;;;6.80;;
13269;SDS011;6703;51.994;7.570;2022-10-12T02:24:20;31.65;;;7.55;;
13269;SDS011;6703;51.994;7.570;2022-10-12T02:26:49;29.85;;;7.63;;
13269;SDS011;6703;51.994;7.570;2022-10-12T02:29:20;38.83;;;8.07;;
13269;SDS011;6703;51.994;7.570;2022-10-12T02:31:54;30.10;;;7.55;;
13269;SDS011;6703;51.994;7.570;2022-10-12T02:34:24;20.27;;;7.15;;
13269;SDS011;6703;51.994;7.570;2022-10-12T02:36:55;22.30;;;6.95;;
13269;SDS011;6703;51.994;7.570;2022-10-12T02:39:31;24.70;;;7.03;;
13269;SDS011;6703;51.994;7.570;2022-10-12T02:42:02;28.00;;;7.03;;
13269;SDS011;6703;51.994;7.570;2022-10-12T02:44:34;22.85;;;6.75;;
13269;SDS011;6703;51.994;7.570;2022-10-12T02:47:05;14.60;;;6.25;;
13269;SDS011;6703;51.994;7.570;2022-10-12T02:49:34;18.70;;;6.22;;
13269;SDS011;6703;51.994;7.570;2022-10-12T02:52:02;33.67;;;6.20;;
13269;SDS011;6703;51.994;7.570;2022-10-12T02:54:31;26.17;;;5.90;;
13269;SDS011;6703;51.994;7.570;2022-10-12T02:56:59;136.10;;;8.93;;
13269;SDS011;6703;51.994;7.570;2022-10-12T02:59:27;18.83;;;6.25;;
13269;SDS011;6703;51.994;7.570;2022-10-12T03:01:55;19.00;;;6.03;;
13269;SDS011;6703;51.994;7.570;2022-10-12T03:04:24;23.50;;;6.65;;
13269;SDS011;6703;51.994;7.570;2022-10-12T03:06:52;26.97;;;6.73;;
13269;SDS011;6703;51.994;7.570;2022-10-12T03:09:19;137.13;;;9.48;;
13269;SDS011;6703;51.994;7.570;2022-10-12T03:11:47;25.98;;;6.18;;
13269;SDS011;6703;51.994;7.570;2022-10-12T03:14:15;18.98;;;5.78;;
13269;SDS011;6703;51.994;7.570;2022-10-12T03:16:49;27.30;;;7.13;;
13269;SDS011;6703;51.994;7.570;2022-10-12T03:19:17;45.38;;;7.15;;
13269;SDS011;6703;51.994;7.570;2022-10-12T03:21:46;22.90;;;6.75;;
13269;SDS011;6703;51.994;7.570;2022-10-12T03:24:15;26.10;;;6.73;;
13269;SDS011;6703;51.994;7.570;2022-10-12T03:26:43;35.10;;;7.85;;
13269;SDS011;6703;51.994;7.570;2022-10-12T03:29:11;28.08;;;7.32;;
13269;SDS011;6703;51.994;7.570;2022-10-12T03:31:39;24.90;;;6.75;;
13269;SDS011;6703;51.994;7.570;2022-10-12T03:34:06;19.38;;;6.15;;
13269;SDS011;6703;51.994;7.570;2022-10-12T03:36:34;22.77;;;6.30;;
13269;SDS011;6703;51.994;7.570;2022-10-12T03:39:03;27.77;;;6.38;;
13269;SDS011;6703;51.994;7.570;2022-10-12T03:41:31;22.75;;;6.05;;
13269;SDS011;6703;51.994;7.570;2022-10-12T03:43:59;27.02;;;6.40;;
13269;SDS011;6703;51.994;7.570;2022-10-12T03:46:27;21.52;;;6.50;;
13269;SDS011;6703;51.994;7.570;2022-10-12T03:48:55;28.80;;;6.53;;
13269;SDS011;6703;51.994;7.570;2022-10-12T03:51:22;22.35;;;6.13;;
13269;SDS011;6703;51.994;7.570;2022-10-12T03:53:50;20.75;;;6.55;;
13269;SDS011;6703;51.994;7.570;2022-10-12T03:56:18;21.87;;;7.10;;
13269;SDS011;6703;51.994;7.570;2022-10-12T03:58:46;21.90;;;5.85;;
13269;SDS011;6703;51.994;7.570;2022-10-12T04:01:14;20.60;;;6.13;;
13269;SDS011;6703;51.994;7.570;2022-10-12T04:03:42;19.30;;;6.55;;
13269;SDS011;6703;51.994;7.570;2022-10-12T04:06:11;20.20;;;5.85;;
13269;SDS011;6703;51.994;7.570;2022-10-12T04:08:39;15.93;;;6.20;;
13269;SDS011;6703;51.994;7.570;2022-10-12T04:11:12;20.75;;;6.75;;
13269;SDS011;6703;51.994;7.570;2022-10-12T04:13:41;25.58;;;6.35;;
13269;SDS011;6703;51.994;7.570;2022-10-12T04:16:08;18.75;;;5.70;;
13269;SDS011;6703;51.994;7.570;2022-10-12T04:18:36;20.65;;;5.88;;
13269;SDS011;6703;51.994;7.570;2022-10-12T04:21:05;19.92;;;6.70;;
13269;SDS011;6703;51.994;7.570;2022-10-12T04:23:33;24.10;;;6.47;;
13269;SDS011;6703;51.994;7.570;2022-10-12T04:26:02;22.92;;;6.85;;
13269;SDS011;6703;51.994;7.570;2022-10-12T04:28:30;20.17;;;6.15;;
13269;SDS011;6703;51.994;7.570;2022-10-12T04:30:59;20.83;;;6.90;;
13269;SDS011;6703;51.994;7.570;2022-10-12T04:33:27;17.42;;;6.03;;
13269;SDS011;6703;51.994;7.570;2022-10-12T04:35:55;20.55;;;6.53;;
13269;SDS011;6703;51.994;7.570;2022-10-12T04:38:23;20.95;;;6.40;;
13269;SDS011;6703;51.994;7.570;2022-10-12T04:40:51;23.00;;;6.22;;
13269;SDS011;6703;51.994;7.570;2022-10-12T04:43:19;19.77;;;6.22;;
13269;SDS011;6703;51.994;7.570;2022-10-12T04:45:52;24.13;;;6.93;;
13269;SDS011;6703;51.994;7.570;2022-10-12T04:48:24;27.90;;;6.60;;
13269;SDS011;6703;51.994;7.570;2022-10-12T04:50:52;28.58;;;7.20;;
13269;SDS011;6703;51.994;7.570;2022-10-12T04:53:20;26.33;;;6.57;;
13269;SDS011;6703;51.994;7.570;2022-10-12T04:55:48;30.63;;;7.28;;
13269;SDS011;6703;51.994;7.570;2022-10-12T04:58:15;19.15;;;7.00;;
13269;SDS011;6703;51.994;7.570;2022-10-12T05:00:43;45.17;;;7.00;;
13269;SDS011;6703;51.994;7.570;2022-10-12T05:03:12;24.63;;;6.45;;
13269;SDS011;6703;51.994;7.570;2022-10-12T05:05:41;24.52;;;6.63;;
13269;SDS011;6703;51.994;7.570;2022-10-12T05:08:10;27.45;;;6.75;;
13269;SDS011;6703;51.994;7.570;2022-10-12T05:10:40;23.20;;;7.13;;
13269;SDS011;6703;51.994;7.570;2022-10-12T05:13:08;16.48;;;6.30;;
13269;SDS011;6703;51.994;7.570;2022-10-12T05:15:36;22.42;;;6.30;;
13269;SDS011;6703;51.994;7.570;2022-10-12T05:18:04;31.67;;;7.25;;
13269;SDS011;6703;51.994;7.570;2022-10-12T05:20:31;29.00;;;7.20;;
13269;SDS011;6703;51.994;7.570;2022-10-12T05:23:00;28.70;;;6.60;;
13269;SDS011;6703;51.994;7.570;2022-10-12T05:25:28;20.48;;;7.22;;
13269;SDS011;6703;51.994;7.570;2022-10-12T05:27:56;25.87;;;6.60;;
13269;SDS011;6703;51.994;7.570;2022-10-12T05:30:24;23.00;;;6.67;;
13269;SDS011;6703;51.994;7.570;2022-10-12T05:32:51;23.80;;;5.82;;
13269;SDS011;6703;51.994;7.570;2022-10-12T05:35:19;17.63;;;6.35;;
13269;SDS011;6703;51.994;7.570;2022-10-12T05:37:47;21.77;;;6.32;;
13269;SDS011;6703;51.994;7.570;2022-10-12T05:40:16;18.50;;;5.70;;
13269;SDS011;6703;51.994;7.570;2022-10-12T05:42:44;23.80;;;6.35;;
13269;SDS011;6703;51.994;7.570;2022-10-12T05:45:11;21.38;;;6.55;;
13269;SDS011;6703;51.994;7.570;2022-10-12T05:47:39;21.60;;;6.70;;
13269;SDS011;6703;51.994;7.570;2022-10-12T05:50:07;26.63;;;6.60;;
13269;SDS011;6703;51.994;7.570;2022-10-12T05:52:35;28.42;;;6.15;;
13269;SDS011;6703;51.994;7.570;2022-10-12T05:55:03;28.48;;;6.15;;
13269;SDS011;6703;51.994;7.570;2022-10-12T05:57:33;26.65;;;5.95;;
13269;SDS011;6703;51.994;7.570;2022-10-12T06:00:03;27.57;;;6.90;;
13269;SDS011;6703;51.994;7.570;2022-10-12T06:02:32;19.55;;;6.05;;
13269;SDS011;6703;51.994;7.570;2022-10-12T06:04:59;30.92;;;6.63;;
13269;SDS011;6703;51.994;7.570;2022-10-12T06:07:27;22.13;;;6.83;;
13269;SDS011;6703;51.994;7.570;2022-10-12T06:09:56;24.02;;;5.93;;
13269;SDS011;6703;51.994;7.570;2022-10-12T06:12:23;32.45;;;6.30;;
13269;SDS011;6703;51.994;7.570;2022-10-12T06:14:53;28.63;;;6.47;;
13269;SDS011;6703;51.994;7.570;2022-10-12T06:17:20;27.40;;;7.15;;
13269;SDS011;6703;51.994;7.570;2022-10-12T06:19:48;22.33;;;6.68;;
13269;SDS011;6703;51.994;7.570;2022-10-12T06:22:16;17.45;;;5.90;;
13269;SDS011;6703;51.994;7.570;2022-10-12T06:24:44;20.48;;;6.68;;
13269;SDS011;6703;51.994;7.570;2022-10-12T06:27:12;23.67;;;5.65;;
13269;SDS011;6703;51.994;7.570;2022-10-12T06:29:39;23.77;;;6.35;;
13269;SDS011;6703;51.994;7.570;2022-10-12T06:32:08;24.45;;;5.97;;
13269;SDS011;6703;51.994;7.570;2022-10-12T06:34:36;28.25;;;6.28;;
13269;SDS011;6703;51.994;7.570;2022-10-12T06:37:04;14.07;;;5.00;;
13269;SDS011;6703;51.994;7.570;2022-10-12T06:39:31;24.80;;;6.35;;
13269;SDS011;6703;51.994;7.570;2022-10-12T06:41:59;32.27;;;6.10;;
13269;SDS011;6703;51.994;7.570;2022-10-12T06:44:27;27.55;;;6.72;;
13269;SDS011;6703;51.994;7.570;2022-10-12T06:46:55;20.80;;;5.80;;
13269;SDS011;6703;51.994;7.570;2022-10-12T06:49:24;27.55;;;6.80;;
13269;SDS011;6703;51.994;7.570;2022-10-12T06:51:52;34.22;;;7.53;;
13269;SDS011;6703;51.994;7.570;2022-10-12T06:54:20;27.50;;;6.80;;
13269;SDS011;6703;51.994;7.570;2022-10-12T06:56:47;37.92;;;6.75;;
13269;SDS011;6703;51.994;7.570;2022-10-12T06:59:15;22.40;;;5.78;;
13269;SDS011;6703;51.994;7.570;2022-10-12T07:01:45;19.15;;;5.97;;
13269;SDS011;6703;51.994;7.570;2022-10-12T07:04:12;22.70;;;6.32;;
13269;SDS011;6703;51.994;7.570;2022-10-12T07:06:41;20.75;;;7.47;;
13269;SDS011;6703;51.994;7.570;2022-10-12T07:09:09;26.27;;;6.50;;
13269;SDS011;6703;51.994;7.570;2022-10-12T07:11:37;31.27;;;7.18;;
13269;SDS011;6703;51.994;7.570;2022-10-12T07:14:04;28.80;;;6.97;;
13269;SDS011;6703;51.994;7.570;2022-10-12T07:16:32;29.15;;;7.25;;
13269;SDS011;6703;51.994;7.570;2022-10-12T07:19:00;23.98;;;6.93;;
13269;SDS011;6703;51.994;7.570;2022-10-12T07:21:28;25.97;;;6.83;;
13269;SDS011;6703;51.994;7.570;2022-10-12T07:23:57;26.40;;;7.85;;
13269;SDS011;6703;51.994;7.570;2022-10-12T07:26:25;25.48;;;8.00;;
13269;SDS011;6703;51.994;7.570;2022-10-12T07:28:52;26.23;;;7.13;;
13269;SDS011;6703;51.994;7.570;2022-10-12T07:31:20;36.38;;;7.57;;
13269;SDS011;6703;51.994;7.570;2022-10-12T07:33:48;22.15;;;7.95;;
13269;SDS011;6703;51.994;7.570;2022-10-12T07:36:15;24.95;;;7.60;;
13269;SDS011;6703;51.994;7.570;2022-10-12T07:38:47;30.13;;;7.93;;
13269;SDS011;6703;51.994;7.570;2022-10-12T07:41:16;26.42;;;8.02;;
13269;SDS011;6703;51.994;7.570;2022-10-12T07:43:44;24.15;;;7.88;;
13269;SDS011;6703;51.994;7.570;2022-10-12T07:46:12;21.73;;;7.65;;
13269;SDS011;6703;51.994;7.570;2022-10-12T07:48:40;28.05;;;7.50;;
13269;SDS011;6703;51.994;7.570;2022-10-12T07:51:15;23.63;;;7.43;;
13269;SDS011;6703;51.994;7.570;2022-10-12T07:53:43;26.48;;;7.20;;
13269;SDS011;6703;51.994;7.570;2022-10-12T07:56:12;26.60;;;6.82;;
13269;SDS011;6703;51.994;7.570;2022-10-12T07:58:43;21.10;;;7.00;;
13269;SDS011;6703;51.994;7.570;2022-10-12T08:01:15;25.27;;;7.43;;
13269;SDS011;6703;51.994;7.570;2022-10-12T08:03:43;29.13;;;7.50;;
13269;SDS011;6703;51.994;7.570;2022-10-12T08:06:12;25.13;;;7.90;;
13269;SDS011;6703;51.994;7.570;2022-10-12T08:08:40;29.45;;;7.45;;
13269;SDS011;6703;51.994;7.570;2022-10-12T08:11:08;22.65;;;7.45;;
13269;SDS011;6703;51.994;7.570;2022-10-12T08:13:38;25.05;;;8.25;;
13269;SDS011;6703;51.994;7.570;2022-10-12T08:16:10;19.38;;;7.60;;
13269;SDS011;6703;51.994;7.570;2022-10-12T08:18:39;24.63;;;8.35;;
13269;SDS011;6703;51.994;7.570;2022-10-12T08:21:08;32.28;;;7.70;;
13269;SDS011;6703;51.994;7.570;2022-10-12T08:23:36;26.95;;;7.88;;
13269;SDS011;6703;51.994;7.570;2022-10-12T08:26:04;32.37;;;9.17;;
13269;SDS011;6703;51.994;7.570;2022-10-12T08:28:32;22.77;;;8.40;;
13269;SDS011;6703;51.994;7.570;2022-10-12T08:31:04;37.10;;;8.67;;
13269;SDS011;6703;51.994;7.570;2022-10-12T08:33:34;25.15;;;9.23;;
13269;SDS011;6703;51.994;7.570;2022-10-12T08:36:02;29.10;;;9.25;;
13269;SDS011;6703;51.994;7.570;2022-10-12T08:38:31;38.05;;;9.82;;
13269;SDS011;6703;51.994;7.570;2022-10-12T08:41:00;29.60;;;9.60;;
13269;SDS011;6703;51.994;7.570;2022-10-12T08:43:33;38.75;;;10.27;;
13269;SDS011;6703;51.994;7.570;2022-10-12T08:46:06;27.55;;;8.95;;
13269;SDS011;6703;51.994;7.570;2022-10-12T08:48:37;33.97;;;10.02;;
13269;SDS011;6703;51.994;7.570;2022-10-12T08:51:12;31.10;;;9.40;;
13269;SDS011;6703;51.994;7.570;2022-10-12T08:53:43;24.92;;;8.55;;
13269;SDS011;6703;51.994;7.570;2022-10-12T08:56:14;21.45;;;6.28;;
13269;SDS011;6703;51.994;7.570;2022-10-12T08:58:42;17.08;;;6.00;;
13269;SDS011;6703;51.994;7.570;2022-10-12T09:01:13;14.43;;;5.70;;
13269;SDS011;6703;51.994;7.570;2022-10-12T09:03:48;15.93;;;4.70;;
13269;SDS011;6703;51.994;7.570;2022-10-12T09:06:24;15.88;;;3.97;;
13269;SDS011;6703;51.994;7.570;2022-10-12T09:08:57;14.88;;;4.10;;
13269;SDS011;6703;51.994;7.570;2022-10-12T09:11:49;11.85;;;4.32;;
13269;SDS011;6703;51.994;7.570;2022-10-12T09:14:23;16.20;;;4.00;;
13269;SDS011;6703;51.994;7.570;2022-10-12T09:16:53;10.45;;;3.50;;
13269;SDS011;6703;51.994;7.570;2022-10-12T09:19:28;15.15;;;4.28;;
13269;SDS011;6703;51.994;7.570;2022-10-12T09:21:58;16.25;;;4.20;;
13269;SDS011;6703;51.994;7.570;2022-10-12T09:24:28;9.55;;;3.80;;
13269;SDS011;6703;51.994;7.570;2022-10-12T09:27:07;15.85;;;4.90;;
13269;SDS011;6703;51.994;7.570;2022-10-12T09:29:39;13.82;;;4.60;;
13269;SDS011;6703;51.994;7.570;2022-10-12T09:32:18;17.15;;;3.97;;
13269;SDS011;6703;51.994;7.570;2022-10-12T09:34:53;11.80;;;4.47;;
13269;SDS011;6703;51.994;7.570;2022-10-12T09:37:23;19.20;;;4.10;;
13269;SDS011;6703;51.994;7.570;2022-10-12T09:39:51;22.38;;;4.22;;
13269;SDS011;6703;51.994;7.570;2022-10-12T09:42:19;15.47;;;4.40;;
13269;SDS011;6703;51.994;7.570;2022-10-12T09:44:47;19.48;;;4.57;;
13269;SDS011;6703;51.994;7.570;2022-10-12T09:47:23;13.93;;;4.63;;
13269;SDS011;6703;51.994;7.570;2022-10-12T09:49:55;13.88;;;4.13;;
13269;SDS011;6703;51.994;7.570;2022-10-12T09:52:25;15.55;;;4.50;;
13269;SDS011;6703;51.994;7.570;2022-10-12T09:54:56;9.73;;;3.65;;
13269;SDS011;6703;51.994;7.570;2022-10-12T09:57:31;20.57;;;4.13;;
13269;SDS011;6703;51.994;7.570;2022-10-12T10:00:00;9.18;;;3.13;;
13269;SDS011;6703;51.994;7.570;2022-10-12T10:02:34;12.93;;;3.28;;
13269;SDS011;6703;51.994;7.570;2022-10-12T10:05:21;14.23;;;3.70;;
13269;SDS011;6703;51.994;7.570;2022-10-12T10:07:50;9.57;;;2.88;;
13269;SDS011;6703;51.994;7.570;2022-10-12T10:10:19;14.63;;;2.80;;
13269;SDS011;6703;51.994;7.570;2022-10-12T10:12:55;17.63;;;3.23;;
13269;SDS011;6703;51.994;7.570;2022-10-12T10:15:29;11.75;;;3.20;;
13269;SDS011;6703;51.994;7.570;2022-10-12T10:18:02;15.55;;;3.17;;
13269;SDS011;6703;51.994;7.570;2022-10-12T10:20:38;12.68;;;2.55;;
13269;SDS011;6703;51.994;7.570;2022-10-12T10:23:19;9.52;;;2.75;;
13269;SDS011;6703;51.994;7.570;2022-10-12T10:25:55;12.52;;;2.58;;
13269;SDS011;6703;51.994;7.570;2022-10-12T10:28:27;10.52;;;2.55;;
13269;SDS011;6703;51.994;7.570;2022-10-12T10:30:57;11.38;;;2.85;;
13269;SDS011;6703;51.994;7.570;2022-10-12T10:33:31;10.73;;;2.80;;
13269;SDS011;6703;51.994;7.570;2022-10-12T10:36:05;18.45;;;2.55;;
13269;SDS011;6703;51.994;7.570;2022-10-12T10:38:46;9.43;;;2.35;;
13269;SDS011;6703;51.994;7.570;2022-10-12T10:41:30;9.65;;;2.58;;
13269;SDS011;6703;51.994;7.570;2022-10-12T10:43:59;9.10;;;2.20;;
13269;SDS011;6703;51.994;7.570;2022-10-12T10:46:27;7.90;;;2.30;;
13269;SDS011;6703;51.994;7.570;2022-10-12T10:48:57;10.43;;;2.42;;
13269;SDS011;6703;51.994;7.570;2022-10-12T10:51:42;10.97;;;2.80;;
13269;SDS011;6703;51.994;7.570;2022-10-12T10:54:12;10.48;;;2.10;;
13269;SDS011;6703;51.994;7.570;2022-10-12T10:56:41;10.20;;;2.20;;
13269;SDS011;6703;51.994;7.570;2022-10-12T10:59:13;10.35;;;2.17;;
13269;SDS011;6703;51.994;7.570;2022-10-12T11:01:44;8.18;;;2.35;;
13269;SDS011;6703;51.994;7.570;2022-10-12T11:04:19;11.75;;;1.95;;
13269;SDS011;6703;51.994;7.570;2022-10-12T11:06:52;7.60;;;1.80;;
13269;SDS011;6703;51.994;7.570;2022-10-12T11:09:22;9.52;;;1.98;;
13269;SDS011;6703;51.994;7.570;2022-10-12T11:11:55;10.75;;;2.22;;
13269;SDS011;6703;51.994;7.570;2022-10-12T11:14:27;10.95;;;2.03;;
13269;SDS011;6703;51.994;7.570;2022-10-12T11:16:58;9.70;;;1.90;;
13269;SDS011;6703;51.994;7.570;2022-10-12T11:19:29;9.32;;;1.73;;
13269;SDS011;6703;51.994;7.570;2022-10-12T11:22:03;7.53;;;1.42;;
13269;SDS011;6703;51.994;7.570;2022-10-12T11:24:34;9.95;;;1.63;;
13269;SDS011;6703;51.994;7.570;2022-10-12T11:27:06;6.30;;;1.17;;
13269;SDS011;6703;51.994;7.570;2022-10-12T11:29:36;9.73;;;1.63;;
13269;SDS011;6703;51.994;7.570;2022-10-12T11:32:04;9.38;;;1.58;;
13269;SDS011;6703;51.994;7.570;2022-10-12T11:34:42;5.97;;;1.17;;
13269;SDS011;6703;51.994;7.570;2022-10-12T11:37:15;5.97;;;1.20;;
13269;SDS011;6703;51.994;7.570;2022-10-12T11:39:46;4.75;;;1.30;;
13269;SDS011;6703;51.994;7.570;2022-10-12T11:42:18;7.97;;;1.57;;
13269;SDS011;6703;51.994;7.570;2022-10-12T11:44:52;7.60;;;1.73;;
13269;SDS011;6703;51.994;7.570;2022-10-12T11:47:21;10.82;;;1.60;;
13269;SDS011;6703;51.994;7.570;2022-10-12T11:49:55;6.60;;;1.27;;
13269;SDS011;6703;51.994;7.570;2022-10-12T11:52:29;8.43;;;1.60;;
13269;SDS011;6703;51.994;7.570;2022-10-12T11:55:06;12.95;;;1.85;;
13269;SDS011;6703;51.994;7.570;2022-10-12T11:57:48;8.85;;;1.40;;
13269;SDS011;6703;51.994;7.570;2022-10-12T12:00:17;8.70;;;1.40;;
13269;SDS011;6703;51.994;7.570;2022-10-12T12:02:48;6.07;;;1.50;;
13269;SDS011;6703;51.994;7.570;2022-10-12T12:05:19;11.93;;;2.22;;
13269;SDS011;6703;51.994;7.570;2022-10-12T12:07:48;4.80;;;1.30;;
13269;SDS011;6703;51.994;7.570;2022-10-12T12:13:20;11.30;;;1.98;;
13269;SDS011;6703;51.994;7.570;2022-10-12T12:19:08;12.25;;;1.60;;
13269;SDS011;6703;51.994;7.570;2022-10-12T12:24:56;7.07;;;1.73;;
13269;SDS011;6703;51.994;7.570;2022-10-12T12:27:30;8.75;;;1.65;;
13269;SDS011;6703;51.994;7.570;2022-10-12T12:30:02;7.40;;;1.40;;
13269;SDS011;6703;51.994;7.570;2022-10-12T12:32:39;6.35;;;1.70;;
13269;SDS011;6703;51.994;7.570;2022-10-12T12:35:21;4.63;;;1.40;;
13269;SDS011;6703;51.994;7.570;2022-10-12T12:38:00;7.88;;;2.05;;
13269;SDS011;6703;51.994;7.570;2022-10-12T12:40:35;7.90;;;1.97;;
13269;SDS011;6703;51.994;7.570;2022-10-12T12:43:19;7.93;;;1.80;;
13269;SDS011;6703;51.994;7.570;2022-10-12T12:46:03;13.07;;;1.90;;
13269;SDS011;6703;51.994;7.570;2022-10-12T12:51:23;10.50;;;1.95;;
13269;SDS011;6703;51.994;7.570;2022-10-12T12:53:59;7.53;;;1.83;;
13269;SDS011;6703;51.994;7.570;2022-10-12T12:56:31;7.30;;;1.75;;
13269;SDS011;6703;51.994;7.570;2022-10-12T12:59:08;13.18;;;2.00;;
13269;SDS011;6703;51.994;7.570;2022-10-12T13:01:50;9.00;;;1.85;;
13269;SDS011;6703;51.994;7.570;2022-10-12T13:07:33;7.00;;;1.40;;
13269;SDS011;6703;51.994;7.570;2022-10-12T13:10:25;9.90;;;1.75;;
13269;SDS011;6703;51.994;7.570;2022-10-12T13:13:05;7.38;;;1.40;;
13269;SDS011;6703;51.994;7.570;2022-10-12T13:15:55;5.07;;;1.35;;
13269;SDS011;6703;51.994;7.570;2022-10-12T13:21:16;9.10;;;1.43;;
13269;SDS011;6703;51.994;7.570;2022-10-12T13:23:46;9.60;;;1.90;;
13269;SDS011;6703;51.994;7.570;2022-10-12T13:26:16;6.95;;;1.30;;
13269;SDS011;6703;51.994;7.570;2022-10-12T13:28:47;6.93;;;1.35;;
13269;SDS011;6703;51.994;7.570;2022-10-12T13:31:17;6.30;;;1.73;;
13269;SDS011;6703;51.994;7.570;2022-10-12T13:33:48;8.38;;;1.33;;
13269;SDS011;6703;51.994;7.570;2022-10-12T13:36:24;5.30;;;1.17;;
13269;SDS011;6703;51.994;7.570;2022-10-12T13:38:53;9.18;;;1.75;;
13269;SDS011;6703;51.994;7.570;2022-10-12T13:41:22;6.25;;;1.20;;
13269;SDS011;6703;51.994;7.570;2022-10-12T13:43:52;5.03;;;1.30;;
13269;SDS011;6703;51.994;7.570;2022-10-12T13:46:35;6.10;;;1.50;;
13269;SDS011;6703;51.994;7.570;2022-10-12T13:49:11;5.68;;;1.40;;
13269;SDS011;6703;51.994;7.570;2022-10-12T13:51:41;6.90;;;1.77;;
13269;SDS011;6703;51.994;7.570;2022-10-12T13:54:13;6.00;;;1.25;;
13269;SDS011;6703;51.994;7.570;2022-10-12T13:56:42;8.95;;;1.80;;
13269;SDS011;6703;51.994;7.570;2022-10-12T13:59:12;8.25;;;1.90;;
13269;SDS011;6703;51.994;7.570;2022-10-12T14:01:48;6.85;;;1.67;;
13269;SDS011;6703;51.994;7.570;2022-10-12T14:04:16;9.90;;;2.38;;
13269;SDS011;6703;51.994;7.570;2022-10-12T14:06:46;6.25;;;1.40;;
13269;SDS011;6703;51.994;7.570;2022-10-12T14:09:21;7.68;;;1.58;;
13269;SDS011;6703;51.994;7.570;2022-10-12T14:11:50;7.07;;;1.55;;
13269;SDS011;6703;51.994;7.570;2022-10-12T14:14:26;4.60;;;1.52;;
13269;SDS011;6703;51.994;7.570;2022-10-12T14:16:57;5.15;;;1.60;;
13269;SDS011;6703;51.994;7.570;2022-10-12T14:19:40;7.60;;;1.73;;
13269;SDS011;6703;51.994;7.570;2022-10-12T14:22:10;7.35;;;1.58;;
13269;SDS011;6703;51.994;7.570;2022-10-12T14:24:39;10.48;;;1.77;;
13269;SDS011;6703;51.994;7.570;2022-10-12T14:27:07;9.75;;;1.88;;
13269;SDS011;6703;51.994;7.570;2022-10-12T14:29:39;6.85;;;2.03;;
13269;SDS011;6703;51.994;7.570;2022-10-12T14:35:11;6.13;;;1.60;;
13269;SDS011;6703;51.994;7.570;2022-10-12T14:37:40;8.20;;;1.53;;
13269;SDS011;6703;51.994;7.570;2022-10-12T14:40:25;8.95;;;1.90;;
13269;SDS011;6703;51.994;7.570;2022-10-12T14:43:03;8.25;;;1.58;;
13269;SDS011;6703;51.994;7.570;2022-10-12T14:45:34;6.28;;;1.60;;
13269;SDS011;6703;51.994;7.570;2022-10-12T14:48:07;5.55;;;1.60;;
13269;SDS011;6703;51.994;7.570;2022-10-12T14:50:36;7.35;;;1.70;;
13269;SDS011;6703;51.994;7.570;2022-10-12T14:53:04;7.10;;;1.70;;
13269;SDS011;6703;51.994;7.570;2022-10-12T14:55:36;7.80;;;1.75;;
13269;SDS011;6703;51.994;7.570;2022-10-12T14:58:03;6.90;;;1.70;;
13269;SDS011;6703;51.994;7.570;2022-10-12T15:00:35;5.70;;;1.73;;
13269;SDS011;6703;51.994;7.570;2022-10-12T15:03:04;10.75;;;1.60;;
13269;SDS011;6703;51.994;7.570;2022-10-12T15:05:32;7.40;;;1.55;;
13269;SDS011;6703;51.994;7.570;2022-10-12T15:08:00;11.50;;;2.08;;
13269;SDS011;6703;51.994;7.570;2022-10-12T15:10:32;7.83;;;1.40;;
13269;SDS011;6703;51.994;7.570;2022-10-12T15:13:00;6.65;;;1.67;;
13269;SDS011;6703;51.994;7.570;2022-10-12T15:15:30;11.57;;;2.10;;
13269;SDS011;6703;51.994;7.570;2022-10-12T15:18:01;12.20;;;2.00;;
13269;SDS011;6703;51.994;7.570;2022-10-12T15:20:29;9.05;;;1.90;;
13269;SDS011;6703;51.994;7.570;2022-10-12T15:22:57;9.10;;;2.00;;
13269;SDS011;6703;51.994;7.570;2022-10-12T15:25:27;12.07;;;1.80;;
13269;SDS011;6703;51.994;7.570;2022-10-12T15:28:03;10.18;;;1.70;;
13269;SDS011;6703;51.994;7.570;2022-10-12T15:30:31;9.93;;;1.83;;
13269;SDS011;6703;51.994;7.570;2022-10-12T15:32:59;6.63;;;1.80;;
13269;SDS011;6703;51.994;7.570;2022-10-12T15:35:31;4.95;;;1.55;;